Time;durP1;ratioP1;P1;durP2;ratioP2;P2;SDS_P1;SDS_P2;PMS_P1;PMS_P2;Temp;Humidity;BMP_temperature;BMP_pressure;BME280_temperature;BME280_humidity;BME280_pressure;Samples;Min_cycle;Max_cycle;Signal;HPM_P1;HPM_P2
2022/03/19 00:02:01;;;;;;;;;76.20;67.80;24.20;99.90;;;;;;5016788;28;8798;-67
2022/03/19 00:04:28;;;;;;;;;76.40;66.20;24.30;99.90;;;;;;5016703;28;8858;-68
2022/03/19 00:06:54;;;;;;;;;74.40;66.80;24.20;99.90;;;;;;5017145;28;8753;-67
2022/03/19 00:09:21;;;;;;;;;70.60;57.40;24.20;99.90;;;;;;5031541;28;8781;-67
2022/03/19 00:11:48;;;;;;;;;83.00;73.80;24.20;99.90;;;;;;5031464;28;8755;-68
2022/03/19 00:14:15;;;;;;;;;75.00;67.80;24.20;99.90;;;;;;5017086;28;8769;-68
2022/03/19 00:16:42;;;;;;;;;68.60;53.80;24.20;99.90;;;;;;4995663;28;8889;-68
2022/03/19 00:19:09;;;;;;;;;78.80;72.00;24.10;99.90;;;;;;4997425;28;8758;-67
2022/03/19 00:21:37;;;;;;;;;75.40;61.40;24.30;99.90;;;;;;4996629;28;8761;-67
2022/03/19 00:24:04;;;;;;;;;73.80;63.00;24.20;99.90;;;;;;4997170;28;9466;-67
2022/03/19 00:26:33;;;;;;;;;78.60;71.00;24.30;99.90;;;;;;4996343;28;8772;-67
2022/03/19 00:29:00;;;;;;;;;75.00;66.40;24.30;99.90;;;;;;5008463;28;8777;-68
2022/03/19 00:31:26;;;;;;;;;71.60;61.80;24.30;99.90;;;;;;5015971;28;8825;-67
2022/03/19 00:33:53;;;;;;;;;79.60;71.60;24.30;99.90;;;;;;5016962;28;8755;-67
2022/03/19 00:36:19;;;;;;;;;76.40;65.00;24.20;99.90;;;;;;5017225;28;9258;-66
2022/03/19 00:38:46;;;;;;;;;72.00;61.80;24.30;99.90;;;;;;5020423;28;8783;-67
2022/03/19 00:41:13;;;;;;;;;79.60;70.00;24.30;99.90;;;;;;5020193;28;8795;-68
2022/03/19 00:43:41;;;;;;;;;69.20;57.40;24.40;99.90;;;;;;5019628;28;8771;-67
2022/03/19 00:46:07;;;;;;;;;78.60;67.00;24.50;99.90;;;;;;5020500;28;8751;-68
2022/03/19 00:48:34;;;;;;;;;79.80;73.60;24.50;99.90;;;;;;5019902;28;8759;-68
2022/03/19 00:51:01;;;;;;;;;78.00;68.80;24.50;99.90;;;;;;5020099;28;8775;-67
2022/03/19 00:53:27;;;;;;;;;75.40;64.60;24.60;99.90;;;;;;5019861;28;8762;-67
2022/03/19 00:55:54;;;;;;;;;75.40;65.00;24.60;99.90;;;;;;5019856;28;9491;-68
2022/03/19 00:58:20;;;;;;;;;71.80;58.80;24.70;99.90;;;;;;5018585;28;8786;-67
2022/03/19 01:00:47;;;;;;;;;76.60;67.00;24.80;99.90;;;;;;5019403;28;9412;-68
2022/03/19 01:03:15;;;;;;;;;71.60;59.00;24.80;99.90;;;;;;5019634;28;8893;-69
2022/03/19 01:05:42;;;;;;;;;63.00;48.60;24.70;99.90;;;;;;5019839;28;8833;-67
2022/03/19 01:08:09;;;;;;;;;70.40;57.40;24.70;99.90;;;;;;5019996;28;8779;-67
2022/03/19 01:10:36;;;;;;;;;70.80;58.00;24.70;99.90;;;;;;5019282;28;8755;-67
2022/03/19 01:13:04;;;;;;;;;75.40;60.40;24.70;99.90;;;;;;5034518;28;8783;-67
2022/03/19 01:15:30;;;;;;;;;76.00;66.60;24.90;99.90;;;;;;5019109;28;8893;-68
2022/03/19 01:17:57;;;;;;;;;72.80;60.60;24.90;99.90;;;;;;5019557;28;8735;-68
2022/03/19 01:20:26;;;;;;;;;72.20;58.40;25.00;99.90;;;;;;5019228;28;8767;-67
2022/03/19 01:22:53;;;;;;;;;65.00;53.80;25.00;99.90;;;;;;5034089;28;8762;-68
2022/03/19 01:25:20;;;;;;;;;71.40;54.80;25.00;99.90;;;;;;5034961;28;9388;-67
2022/03/19 01:27:47;;;;;;;;;73.60;61.40;25.10;99.90;;;;;;5018512;28;8750;-67
2022/03/19 01:30:16;;;;;;;;;52.00;44.00;25.20;99.90;;;;;;5034513;28;8797;-68
2022/03/19 01:32:43;;;;;;;;;73.20;62.20;25.20;99.90;;;;;;5019124;28;8877;-67
2022/03/19 01:35:13;;;;;;;;;71.60;61.40;25.40;99.90;;;;;;5034205;28;8759;-67
2022/03/19 01:37:40;;;;;;;;;71.60;55.40;25.50;99.90;;;;;;5018621;28;8797;-67
2022/03/19 01:40:08;;;;;;;;;69.40;56.60;25.60;99.90;;;;;;5034926;28;8833;-67
2022/03/19 01:42:37;;;;;;;;;71.60;54.40;25.70;99.90;;;;;;5033787;28;8723;-67
2022/03/19 01:45:04;;;;;;;;;73.20;61.00;25.80;99.90;;;;;;5018905;28;8721;-67
2022/03/19 01:47:31;;;;;;;;;73.20;61.60;25.90;99.90;;;;;;5018320;28;8755;-67
2022/03/19 01:49:58;;;;;;;;;74.80;62.60;26.00;99.90;;;;;;5017513;28;8804;-67
2022/03/19 01:52:31;;;;;;;;;75.20;64.40;26.10;99.90;;;;;;5018426;28;8751;-58
2022/03/19 01:54:58;;;;;;;;;73.60;61.00;26.20;99.90;;;;;;5033948;28;8743;-67
2022/03/19 01:57:28;;;;;;;;;71.20;58.00;26.10;99.90;;;;;;5017185;28;8885;-67
2022/03/19 01:59:55;;;;;;;;;71.20;58.00;26.20;99.90;;;;;;5018496;28;8779;-67
2022/03/19 02:02:24;;;;;;;;;74.40;61.80;26.30;99.90;;;;;;5033783;28;8824;-67
2022/03/19 02:04:50;;;;;;;;;69.40;57.20;26.30;99.90;;;;;;5033401;28;8755;-68
2022/03/19 02:07:17;;;;;;;;;69.80;56.00;26.40;99.90;;;;;;5018030;28;8755;-67
2022/03/19 02:09:44;;;;;;;;;69.80;57.00;26.50;99.90;;;;;;5018845;28;8794;-68
2022/03/19 02:12:10;;;;;;;;;73.80;59.60;26.60;99.90;;;;;;5018863;28;8790;-68
2022/03/19 02:14:38;;;;;;;;;75.40;62.60;26.60;99.90;;;;;;5032863;28;9536;-67
2022/03/19 02:17:05;;;;;;;;;73.80;57.40;26.70;99.90;;;;;;5033363;28;8793;-67
2022/03/19 02:19:32;;;;;;;;;69.80;59.20;26.80;99.90;;;;;;5033184;28;8774;-67
2022/03/19 02:21:59;;;;;;;;;65.80;53.00;26.70;99.90;;;;;;5018852;28;8761;-68
2022/03/19 02:27:11;;;;;;;;;69.00;53.40;26.90;99.90;;;;;;5018178;28;8818;-67
2022/03/19 02:29:37;;;;;;;;;67.40;54.40;26.90;99.90;;;;;;5016234;28;9154;-67
2022/03/19 02:32:05;;;;;;;;;70.60;58.60;26.90;99.90;;;;;;5018033;28;8775;-67
2022/03/19 02:34:34;;;;;;;;;67.20;55.20;27.00;99.90;;;;;;5033089;28;8788;-67
2022/03/19 02:37:01;;;;;;;;;69.60;56.20;27.20;99.90;;;;;;5018240;28;8767;-68
2022/03/19 02:39:31;;;;;;;;;66.40;52.40;27.20;99.90;;;;;;5017981;28;8747;-67
2022/03/19 02:41:59;;;;;;;;;66.00;51.60;27.20;99.90;;;;;;5018159;28;8767;-68
2022/03/19 02:44:25;;;;;;;;;66.40;51.20;27.30;99.90;;;;;;5017559;28;8778;-68
2022/03/19 02:46:54;;;;;;;;;65.40;51.80;27.40;99.90;;;;;;5017424;28;8818;-68
2022/03/19 02:49:21;;;;;;;;;63.60;51.00;27.30;99.90;;;;;;5017900;28;8785;-67
2022/03/19 02:51:50;;;;;;;;;59.80;50.00;27.40;99.90;;;;;;5017530;28;8820;-67
2022/03/19 02:54:18;;;;;;;;;60.40;49.20;27.40;99.90;;;;;;5032971;28;8840;-67
2022/03/19 02:56:45;;;;;;;;;67.40;51.20;27.40;99.90;;;;;;5017491;28;8813;-68
2022/03/19 02:59:13;;;;;;;;;64.40;50.20;27.50;99.90;;;;;;5017118;28;8767;-69
2022/03/19 03:01:40;;;;;;;;;64.40;51.80;27.70;99.90;;;;;;5016673;28;8751;-67
2022/03/19 03:04:07;;;;;;;;;64.20;52.00;27.70;99.90;;;;;;5018077;28;8777;-69
2022/03/19 03:06:38;;;;;;;;;64.40;50.60;27.80;99.90;;;;;;5017321;28;8762;-67
2022/03/19 03:09:05;;;;;;;;;63.20;49.20;27.80;99.90;;;;;;5016029;28;8833;-68
2022/03/19 03:11:32;;;;;;;;;63.25;50.50;27.90;99.90;;;;;;5017217;28;8771;-68
2022/03/19 03:13:59;;;;;;;;;67.25;51.50;28.00;99.90;;;;;;5016979;28;8759;-69
2022/03/19 03:16:31;;;;;;;;;60.67;46.67;28.00;99.90;;;;;;5017093;28;8766;-66
2022/03/19 03:19:02;;;;;;;;;60.25;47.25;28.10;99.90;;;;;;5017707;28;8731;-67
2022/03/19 03:21:29;;;;;;;;;62.00;51.20;28.20;99.90;;;;;;5022378;28;8753;-67
2022/03/19 03:23:56;;;;;;;;;60.75;48.00;28.20;99.90;;;;;;5017397;28;8818;-67
2022/03/19 03:26:22;;;;;;;;;61.60;48.60;28.20;99.90;;;;;;5016984;28;8770;-68
2022/03/19 03:28:49;;;;;;;;;62.40;46.80;28.20;99.90;;;;;;5016793;28;8779;-68
2022/03/19 03:31:16;;;;;;;;;60.00;48.60;28.30;99.90;;;;;;5017722;28;9442;-68
2022/03/19 03:33:42;;;;;;;;;62.20;47.60;28.40;99.90;;;;;;5016743;28;9016;-68
2022/03/19 03:36:09;;;;;;;;;61.80;47.40;28.40;99.90;;;;;;5017118;28;8747;-68
2022/03/19 03:38:36;;;;;;;;;62.80;49.60;28.50;99.90;;;;;;5016972;28;8747;-67
2022/03/19 03:41:03;;;;;;;;;64.60;51.00;28.50;99.90;;;;;;5016652;28;8786;-68
2022/03/19 03:43:29;;;;;;;;;60.40;48.40;28.40;99.90;;;;;;5016719;28;9617;-67
2022/03/19 03:45:56;;;;;;;;;60.60;47.00;28.60;99.90;;;;;;5016350;28;8723;-67
2022/03/19 03:48:22;;;;;;;;;63.00;50.40;28.70;99.90;;;;;;5016707;28;8743;-67
2022/03/19 03:50:51;;;;;;;;;63.20;50.20;28.80;99.90;;;;;;5032050;28;8744;-68
2022/03/19 03:53:18;;;;;;;;;57.60;47.40;28.90;99.90;;;;;;5016764;28;8747;-66
2022/03/19 03:55:45;;;;;;;;;61.80;49.80;29.00;99.90;;;;;;5016955;28;8803;-67
2022/03/19 03:58:11;;;;;;;;;55.25;45.00;29.10;99.90;;;;;;5016011;28;8759;-68
2022/03/19 04:00:38;;;;;;;;;59.25;48.75;29.20;99.90;;;;;;5031316;28;8763;-67
2022/03/19 04:03:05;;;;;;;;;59.60;48.60;29.00;99.90;;;;;;5016431;28;8754;-67
2022/03/19 04:05:33;;;;;;;;;59.40;48.20;28.80;99.90;;;;;;5016565;28;8743;-67
2022/03/19 04:08:01;;;;;;;;;67.60;50.80;28.90;99.90;;;;;;5016464;28;9395;-67
2022/03/19 04:10:28;;;;;;;;;56.80;46.20;28.90;99.90;;;;;;5016570;28;8734;-66
2022/03/19 04:12:55;;;;;;;;;53.20;44.40;29.00;99.90;;;;;;5002678;28;8779;-67
2022/03/19 04:15:21;;;;;;;;;61.00;49.25;29.00;99.90;;;;;;5035608;28;8784;-67
2022/03/19 04:17:51;;;;;;;;;59.40;48.00;29.10;99.90;;;;;;5036078;28;8896;-67
2022/03/19 04:20:18;;;;;;;;;63.00;48.60;29.30;99.90;;;;;;5020382;28;8750;-65
2022/03/19 04:22:45;;;;;;;;;60.25;47.00;29.40;99.90;;;;;;5020313;28;8821;-67
2022/03/19 04:25:19;;;;;;;;;57.50;43.50;29.50;99.90;;;;;;5020604;28;8820;-67
2022/03/19 04:27:51;;;;;;;;;62.00;47.75;29.60;99.90;;;;;;5020159;28;8839;-67
2022/03/19 04:30:18;;;;;;;;;57.00;46.60;29.70;99.90;;;;;;5020258;28;8779;-67
2022/03/19 04:32:54;;;;;;;;;58.00;46.40;29.70;99.90;;;;;;5020063;28;8798;-67
2022/03/19 04:38:08;;;;;;;;;56.75;45.00;29.90;99.90;;;;;;5019908;28;8778;-68
2022/03/19 04:40:34;;;;;;;;;56.25;46.25;30.00;99.90;;;;;;5035078;28;8754;-67
2022/03/19 04:43:01;;;;;;;;;54.75;44.00;30.10;99.90;;;;;;5020420;28;8906;-67
2022/03/19 04:45:28;;;;;;;;;54.60;43.40;30.10;99.90;;;;;;5019564;28;8763;-67
2022/03/19 04:47:54;;;;;;;;;58.80;48.00;30.20;99.90;;;;;;5020134;28;8797;-67
2022/03/19 04:50:21;;;;;;;;;52.50;43.25;30.20;99.40;;;;;;5019833;28;8735;-66
2022/03/19 04:52:48;;;;;;;;;58.00;46.80;30.10;99.90;;;;;;5019828;28;8752;-67
2022/03/19 04:55:15;;;;;;;;;57.60;47.60;30.20;99.80;;;;;;5020524;28;8771;-66
2022/03/19 04:57:41;;;;;;;;;63.20;47.60;30.30;99.60;;;;;;5019657;28;8782;-67
2022/03/19 05:00:10;;;;;;;;;62.60;49.60;30.40;98.80;;;;;;5019506;28;8807;-66
2022/03/19 05:02:36;;;;;;;;;57.25;46.25;30.30;99.80;;;;;;5019593;28;9357;-66
2022/03/19 05:05:03;;;;;;;;;56.20;45.20;30.40;99.60;;;;;;5019656;28;8858;-66
2022/03/19 05:07:35;;;;;;;;;62.00;47.60;30.40;99.30;;;;;;5019845;28;8771;-66
2022/03/19 05:12:50;;;;;;;;;53.75;44.25;30.30;99.60;;;;;;5031992;28;8794;-66
2022/03/19 05:15:17;;;;;;;;;55.00;44.75;30.40;99.90;;;;;;5019380;28;8869;-65
2022/03/19 05:17:44;;;;;;;;;53.00;42.25;30.60;99.90;;;;;;5019490;28;8908;-66
2022/03/19 05:20:13;;;;;;;;;60.00;47.75;30.50;99.40;;;;;;5017947;28;9151;-66
2022/03/19 05:22:40;;;;;;;;;55.25;46.00;30.60;99.10;;;;;;5024655;28;8837;-66
2022/03/19 05:25:07;;;;;;;;;51.00;43.00;30.70;98.80;;;;;;5019793;28;8770;-66
2022/03/19 05:27:33;;;;;;;;;53.50;44.50;30.70;98.20;;;;;;5033984;28;8802;-66
2022/03/19 05:30:00;;;;;;;;;57.25;45.50;30.70;98.10;;;;;;5019331;28;8794;-66
2022/03/19 05:32:27;;;;;;;;;61.25;47.50;30.60;98.50;;;;;;5018924;28;8763;-66
2022/03/19 05:34:57;;;;;;;;;50.50;43.50;30.70;98.80;;;;;;5018898;28;8747;-67
2022/03/19 05:37:23;;;;;;;;;58.75;46.75;30.90;98.50;;;;;;5034021;28;8781;-66
2022/03/19 05:39:50;;;;;;;;;54.25;45.50;30.80;98.70;;;;;;5019250;28;8787;-67
2022/03/19 05:42:17;;;;;;;;;56.75;46.25;31.00;98.10;;;;;;5018299;28;8763;-65
2022/03/19 05:44:43;;;;;;;;;59.50;47.75;31.00;98.60;;;;;;5018767;28;8782;-67
2022/03/19 05:47:10;;;;;;;;;55.80;45.60;31.20;98.00;;;;;;5017596;28;8762;-66
2022/03/19 05:49:37;;;;;;;;;53.50;43.50;31.20;98.60;;;;;;5018776;28;8767;-66
2022/03/19 05:52:04;;;;;;;;;56.25;44.75;31.20;97.90;;;;;;5034378;28;8778;-66
2022/03/19 05:54:31;;;;;;;;;49.20;40.80;31.20;97.60;;;;;;5017198;28;8755;-66
2022/03/19 05:56:57;;;;;;;;;53.75;45.00;31.30;98.20;;;;;;5018632;28;8802;-66
2022/03/19 05:59:24;;;;;;;;;52.25;42.00;31.40;97.10;;;;;;5018361;28;8771;-66
2022/03/19 06:01:50;;;;;;;;;56.75;45.25;31.50;97.20;;;;;;5018873;28;8780;-66
2022/03/19 06:04:17;;;;;;;;;55.20;44.00;31.50;96.90;;;;;;5019345;28;8751;-65
2022/03/19 06:06:44;;;;;;;;;56.00;45.25;31.50;97.50;;;;;;5018594;28;8778;-66
2022/03/19 06:09:10;;;;;;;;;55.50;45.75;31.60;97.20;;;;;;5018481;28;8775;-66
2022/03/19 06:11:38;;;;;;;;;58.50;46.50;31.70;96.90;;;;;;5033166;28;8916;-66
2022/03/19 06:14:05;;;;;;;;;53.40;44.00;31.70;96.90;;;;;;5015871;28;8804;-66
2022/03/19 06:16:32;;;;;;;;;56.00;44.50;31.70;97.50;;;;;;5000708;28;9343;-65
2022/03/19 06:18:58;;;;;;;;;56.75;45.25;31.70;97.30;;;;;;5001277;28;8791;-66
2022/03/19 06:21:25;;;;;;;;;60.25;47.75;31.80;96.30;;;;;;5017101;28;8756;-65
2022/03/19 06:23:52;;;;;;;;;53.25;44.00;31.80;95.80;;;;;;5016660;28;9392;-66
2022/03/19 06:26:20;;;;;;;;;53.50;42.50;31.70;96.00;;;;;;5016919;28;8743;-64
2022/03/19 06:28:47;;;;;;;;;55.50;45.50;31.80;96.30;;;;;;5017788;28;8755;-66
2022/03/19 06:31:13;;;;;;;;;60.75;47.75;31.80;95.60;;;;;;5018730;28;8735;-66
2022/03/19 06:33:44;;;;;;;;;55.75;45.75;31.70;96.50;;;;;;5016651;28;8755;-65
2022/03/19 06:38:58;;;;;;;;;44.50;38.75;31.80;96.00;;;;;;5030674;28;8735;-65
2022/03/19 06:41:25;;;;;;;;;54.75;45.00;32.00;95.90;;;;;;5017892;28;8881;-65
2022/03/19 06:43:52;;;;;;;;;50.75;42.00;31.90;95.30;;;;;;5018078;28;8766;-65
2022/03/19 06:46:18;;;;;;;;;53.50;43.75;31.90;95.40;;;;;;5033143;28;8851;-64
2022/03/19 06:48:46;;;;;;;;;55.60;44.00;32.00;95.70;;;;;;5017669;28;8754;-65
2022/03/19 06:51:13;;;;;;;;;54.25;44.50;32.10;95.40;;;;;;5017667;28;8840;-65
2022/03/19 06:53:40;;;;;;;;;59.20;47.60;32.20;94.60;;;;;;5017333;28;8810;-65
2022/03/19 06:56:06;;;;;;;;;55.25;44.75;32.20;93.70;;;;;;5016061;28;8739;-66
2022/03/19 06:58:33;;;;;;;;;57.40;46.40;32.30;94.00;;;;;;5031820;28;8754;-65
2022/03/19 07:01:03;;;;;;;;;55.00;45.00;32.30;93.90;;;;;;5033385;28;8731;-65
2022/03/19 07:03:31;;;;;;;;;61.25;46.25;32.10;94.10;;;;;;5016022;28;8786;-65
2022/03/19 07:05:58;;;;;;;;;58.40;45.20;32.10;94.30;;;;;;5032660;28;8808;-65
2022/03/19 07:08:24;;;;;;;;;57.20;45.60;32.20;94.30;;;;;;5017249;28;8861;-65
2022/03/19 07:10:52;;;;;;;;;58.20;46.20;32.20;92.80;;;;;;5016147;28;8870;-67
2022/03/19 07:13:18;;;;;;;;;58.00;47.80;32.30;92.20;;;;;;5017600;28;8810;-65
2022/03/19 07:15:45;;;;;;;;;57.75;45.50;32.40;92.80;;;;;;5017033;28;8789;-65
2022/03/19 07:18:11;;;;;;;;;55.40;45.00;32.40;93.30;;;;;;5032291;28;8770;-65
2022/03/19 07:20:38;;;;;;;;;59.60;46.40;32.50;93.00;;;;;;5016859;28;8806;-66
2022/03/19 07:23:06;;;;;;;;;54.60;44.20;32.60;93.30;;;;;;5016348;28;8806;-66
2022/03/19 07:25:36;;;;;;;;;55.80;45.00;32.50;93.60;;;;;;5031934;28;8759;-66
2022/03/19 07:28:09;;;;;;;;;50.40;41.40;32.60;93.30;;;;;;5016310;28;8819;-66
2022/03/19 07:30:36;;;;;;;;;53.80;44.20;32.60;92.70;;;;;;5015414;28;8890;-65
2022/03/19 07:33:03;;;;;;;;;56.80;46.40;32.60;92.30;;;;;;5017146;28;8774;-65
2022/03/19 07:35:29;;;;;;;;;53.50;43.50;32.50;92.30;;;;;;5016395;28;8810;-66
2022/03/19 07:37:57;;;;;;;;;56.60;46.40;32.60;92.50;;;;;;5017075;28;8763;-66
2022/03/19 07:43:10;;;;;;;;;53.00;43.80;32.70;92.10;;;;;;5017099;28;8759;-66
2022/03/19 07:45:37;;;;;;;;;55.00;44.80;32.70;91.30;;;;;;5016512;28;8806;-65
2022/03/19 07:48:05;;;;;;;;;56.60;46.80;32.60;91.30;;;;;;5016855;28;8779;-65
2022/03/19 07:50:32;;;;;;;;;54.00;44.60;32.60;92.00;;;;;;5016355;28;8790;-65
2022/03/19 07:52:58;;;;;;;;;54.80;45.20;32.70;90.50;;;;;;5031939;28;9774;-66
2022/03/19 07:55:25;;;;;;;;;50.75;40.75;32.70;90.10;;;;;;5016427;28;8775;-64
2022/03/19 07:57:52;;;;;;;;;56.25;46.75;32.70;90.80;;;;;;5017291;28;8755;-66
2022/03/19 08:00:19;;;;;;;;;56.40;44.60;32.80;90.80;;;;;;5031614;28;9031;-64
2022/03/19 08:02:46;;;;;;;;;53.75;44.75;32.90;90.40;;;;;;5032435;28;8817;-65
2022/03/19 08:05:13;;;;;;;;;56.00;45.00;32.90;89.20;;;;;;5031965;28;8759;-65
2022/03/19 08:07:39;;;;;;;;;58.40;46.40;32.90;90.50;;;;;;5031635;28;8763;-66
2022/03/19 08:10:07;;;;;;;;;55.60;44.20;32.90;90.70;;;;;;5017576;28;8767;-66
2022/03/19 08:12:34;;;;;;;;;55.40;45.00;33.00;90.10;;;;;;5016491;28;8740;-66
2022/03/19 08:15:06;;;;;;;;;56.20;46.20;32.90;87.20;;;;;;4996395;28;8829;-65
2022/03/19 08:17:33;;;;;;;;;56.00;45.80;32.90;89.10;;;;;;4996834;28;8766;-65
2022/03/19 08:19:59;;;;;;;;;55.20;43.40;33.00;87.80;;;;;;5011949;28;9283;-66
2022/03/19 08:22:26;;;;;;;;;61.50;46.75;32.90;87.60;;;;;;4979305;28;8769;-65
2022/03/19 08:24:53;;;;;;;;;55.40;45.00;32.80;90.10;;;;;;4997750;28;8753;-66
2022/03/19 08:27:20;;;;;;;;;60.80;47.20;32.70;88.10;;;;;;4996800;28;8818;-65
2022/03/19 08:29:47;;;;;;;;;57.75;45.75;32.70;88.40;;;;;;5030098;28;8771;-66
2022/03/19 08:32:14;;;;;;;;;54.00;43.00;32.70;90.30;;;;;;5016603;28;8758;-65
2022/03/19 08:34:41;;;;;;;;;60.00;46.00;32.70;90.10;;;;;;5031918;28;8798;-65
2022/03/19 08:37:21;;;;;;;;;53.25;44.50;32.70;89.10;;;;;;5017344;28;9420;-65
2022/03/19 08:42:36;;;;;;;;;58.40;47.20;32.70;88.40;;;;;;5017273;28;9172;-65
2022/03/19 08:45:03;;;;;;;;;59.40;48.00;32.70;90.40;;;;;;4997031;28;8773;-65
2022/03/19 08:47:29;;;;;;;;;62.80;47.80;32.80;89.10;;;;;;5011622;28;8891;-65
2022/03/19 08:49:56;;;;;;;;;57.00;45.60;32.80;89.50;;;;;;4996771;28;8765;-66
2022/03/19 08:52:23;;;;;;;;;55.20;45.40;32.90;89.20;;;;;;5012175;28;8758;-65
2022/03/19 08:54:49;;;;;;;;;54.40;45.20;33.00;90.00;;;;;;4996813;28;8784;-66
2022/03/19 08:57:16;;;;;;;;;54.40;44.60;33.00;90.30;;;;;;4995577;28;8769;-65
2022/03/19 08:59:45;;;;;;;;;57.40;46.00;33.00;90.00;;;;;;5031766;28;8770;-65
2022/03/19 09:02:12;;;;;;;;;52.40;42.00;33.00;89.20;;;;;;5020111;28;8858;-65
2022/03/19 09:04:39;;;;;;;;;56.80;44.00;32.90;90.10;;;;;;5034991;28;8759;-65
2022/03/19 09:07:05;;;;;;;;;58.80;44.60;33.00;88.80;;;;;;5035432;28;8797;-65
2022/03/19 09:09:32;;;;;;;;;55.00;45.75;32.90;90.00;;;;;;5018040;28;8877;-65
2022/03/19 09:11:58;;;;;;;;;58.00;46.25;32.90;90.30;;;;;;5020071;28;8736;-66
2022/03/19 09:14:27;;;;;;;;;53.75;44.75;32.80;89.70;;;;;;5019140;28;8864;-65
2022/03/19 09:16:53;;;;;;;;;55.50;45.75;32.90;90.20;;;;;;5019751;28;9462;-66
2022/03/19 09:19:20;;;;;;;;;59.75;47.75;32.90;90.60;;;;;;5035326;28;8776;-65
2022/03/19 09:21:46;;;;;;;;;55.20;45.00;32.90;90.40;;;;;;5018024;28;8727;-66
2022/03/19 09:24:15;;;;;;;;;55.60;45.20;32.80;89.10;;;;;;5019624;28;8747;-66
2022/03/19 09:26:41;;;;;;;;;55.20;45.00;32.80;88.90;;;;;;5019100;28;8770;-66
2022/03/19 09:29:09;;;;;;;;;48.60;40.20;32.80;88.80;;;;;;5019005;28;8778;-66
2022/03/19 09:31:35;;;;;;;;;53.60;45.40;32.70;87.80;;;;;;5033975;28;8735;-66
2022/03/19 09:34:02;;;;;;;;;56.60;46.60;32.70;89.10;;;;;;5018403;28;8746;-66
2022/03/19 09:36:29;;;;;;;;;55.20;45.80;32.70;90.40;;;;;;5033993;28;8754;-66
2022/03/19 09:38:55;;;;;;;;;54.00;43.20;32.60;91.10;;;;;;5017845;28;8917;-66
2022/03/19 09:41:22;;;;;;;;;54.60;45.00;32.60;90.30;;;;;;5034085;28;8739;-66
2022/03/19 09:43:49;;;;;;;;;57.40;44.60;32.70;90.40;;;;;;5018918;28;8755;-66
2022/03/19 09:46:18;;;;;;;;;57.00;46.80;32.60;89.80;;;;;;5018554;28;8699;-66
2022/03/19 09:48:45;;;;;;;;;58.20;46.00;32.70;89.40;;;;;;5019287;28;8758;-66
2022/03/19 09:51:12;;;;;;;;;56.50;45.00;32.70;88.90;;;;;;5019008;28;9447;-67
2022/03/19 09:53:38;;;;;;;;;57.20;46.80;32.60;90.50;;;;;;5018967;28;8806;-66
2022/03/19 09:56:05;;;;;;;;;62.80;47.80;32.70;89.80;;;;;;5017765;28;8786;-66
2022/03/19 09:58:33;;;;;;;;;58.20;48.20;32.70;89.90;;;;;;5019194;28;8797;-66
2022/03/19 10:01:05;;;;;;;;;61.60;47.20;32.70;88.00;;;;;;5019398;28;8805;-66
2022/03/19 10:03:41;;;;;;;;;59.40;46.80;32.70;90.00;;;;;;5018656;28;8779;-65
2022/03/19 10:08:57;;;;;;;;;59.20;47.00;32.70;90.10;;;;;;5017138;28;8727;-66
2022/03/19 10:11:25;;;;;;;;;60.20;48.20;32.70;89.50;;;;;;5018049;28;8716;-66
2022/03/19 10:13:52;;;;;;;;;49.50;37.50;32.70;89.40;;;;;;5022734;28;8819;-66
2022/03/19 10:16:31;;;;;;;;;45.25;33.00;32.40;89.60;;;;;;4998797;28;8721;-65
2022/03/19 10:18:59;;;;;;;;;30.00;25.00;31.60;89.40;;;;;;4999216;28;8726;-66
2022/03/19 10:21:27;;;;;;;;;31.75;25.50;30.90;87.30;;;;;;4981361;28;8792;-66
2022/03/19 10:23:55;;;;;;;;;33.25;28.50;30.50;88.40;;;;;;4998725;28;8709;-66
2022/03/19 10:26:27;;;;;;;;;32.25;27.75;30.10;87.40;;;;;;4998600;28;8733;-65
2022/03/19 10:29:00;;;;;;;;;29.25;26.50;29.80;87.70;;;;;;5009056;28;8747;-66
2022/03/19 10:31:37;;;;;;;;;29.50;25.50;29.80;87.60;;;;;;5016579;28;9376;-65
2022/03/19 10:34:05;;;;;;;;;27.25;25.00;29.60;87.10;;;;;;5034277;28;8789;-66
2022/03/19 10:36:33;;;;;;;;;25.50;24.75;29.50;86.60;;;;;;5018147;28;8754;-66
2022/03/19 10:39:01;;;;;;;;;28.75;27.00;29.40;85.60;;;;;;5018115;28;8727;-66
2022/03/19 10:41:28;;;;;;;;;30.75;28.50;29.30;85.10;;;;;;5033210;28;8771;-66
2022/03/19 10:43:54;;;;;;;;;29.00;23.25;29.30;84.20;;;;;;5022577;28;8764;-66
2022/03/19 10:46:21;;;;;;;;;22.50;21.50;29.20;85.40;;;;;;4999194;28;8710;-65
2022/03/19 10:48:54;;;;;;;;;25.50;25.50;29.40;84.40;;;;;;4998526;28;8781;-65
2022/03/19 10:51:21;;;;;;;;;31.00;28.50;29.30;84.10;;;;;;4981291;28;8814;-66
2022/03/19 10:53:48;;;;;;;;;31.00;27.75;29.20;84.20;;;;;;4998091;28;8789;-66
2022/03/19 10:56:15;;;;;;;;;29.75;28.00;29.20;84.70;;;;;;4997129;28;8773;-66
2022/03/19 10:58:42;;;;;;;;;32.25;30.00;29.20;84.60;;;;;;5006956;28;8751;-66
2022/03/19 11:01:09;;;;;;;;;36.25;29.25;29.10;85.70;;;;;;5033473;28;8798;-65
2022/03/19 11:03:38;;;;;;;;;37.75;31.75;28.90;85.40;;;;;;5032488;28;8793;-65
2022/03/19 11:06:06;;;;;;;;;33.25;29.25;28.80;86.60;;;;;;5016290;28;8783;-66
2022/03/19 11:08:51;;;;;;;;;27.75;26.25;28.70;86.30;;;;;;5032499;28;8771;-65
2022/03/19 11:12:10;;;;;;;;;30.00;28.75;28.70;86.50;;;;;;5015970;28;9415;-62
2022/03/19 11:14:38;;;;;;;;;42.75;32.75;28.60;86.50;;;;;;4999662;28;8777;-66
2022/03/19 11:17:24;;;;;;;;;37.50;30.75;28.50;86.30;;;;;;5013175;28;8784;-66
2022/03/19 11:20:00;;;;;;;;;32.25;29.00;28.40;86.40;;;;;;5010825;28;8868;-65
2022/03/19 11:22:40;;;;;;;;;25.25;25.25;28.30;86.10;;;;;;4996671;28;8764;-65
2022/03/19 11:25:12;;;;;;;;;30.50;28.75;28.20;86.90;;;;;;4998420;28;8742;-65
2022/03/19 11:27:41;;;;;;;;;30.50;27.50;28.10;87.30;;;;;;5013182;28;8817;-66
2022/03/19 11:30:16;;;;;;;;;28.50;28.50;28.10;87.70;;;;;;5016152;28;8773;-66
2022/03/19 11:32:59;;;;;;;;;30.00;29.00;28.00;87.80;;;;;;5015905;28;8830;-66
2022/03/19 11:35:26;;;;;;;;;28.75;27.75;28.00;88.00;;;;;;5015063;28;8947;-66
2022/03/19 11:38:01;;;;;;;;;34.50;32.75;27.90;87.80;;;;;;5023968;28;8750;-66
2022/03/19 11:40:30;;;;;;;;;27.25;26.25;27.90;88.20;;;;;;5017004;28;8809;-65
2022/03/19 11:43:07;;;;;;;;;24.50;24.00;28.00;88.40;;;;;;5032787;28;8894;-66
2022/03/19 11:45:38;;;;;;;;;35.25;30.25;28.00;89.20;;;;;;5016810;28;8747;-66
2022/03/19 11:48:37;;;;;;;;;29.25;27.25;27.90;89.50;;;;;;5017113;28;8845;-66
2022/03/19 11:51:25;;;;;;;;;37.75;30.25;27.80;90.20;;;;;;5005337;28;8810;-66
2022/03/19 11:54:05;;;;;;;;;39.00;29.00;27.80;90.20;;;;;;5017166;28;8785;-66
2022/03/19 11:56:51;;;;;;;;;31.50;29.75;27.90;90.50;;;;;;5015669;28;8794;-66
2022/03/19 11:59:18;;;;;;;;;31.75;28.25;27.90;90.10;;;;;;5017043;28;8763;-65
2022/03/19 12:01:47;;;;;;;;;32.75;30.00;27.90;90.40;;;;;;5016899;28;8806;-67
2022/03/19 12:04:14;;;;;;;;;33.25;30.50;27.90;90.80;;;;;;5017472;28;8853;-67
2022/03/19 12:06:59;;;;;;;;;31.75;30.00;27.80;91.00;;;;;;5018146;28;8881;-66
2022/03/19 12:09:40;;;;;;;;;28.00;25.50;27.90;90.90;;;;;;5017388;28;8771;-67
2022/03/19 12:12:16;;;;;;;;;30.50;30.25;27.80;91.10;;;;;;5016332;28;8817;-67
2022/03/19 12:14:46;;;;;;;;;36.75;32.25;27.70;91.60;;;;;;5016863;28;8791;-66
2022/03/19 12:17:20;;;;;;;;;36.50;30.00;27.70;91.60;;;;;;5031686;28;8774;-66
2022/03/19 12:19:58;;;;;;;;;34.25;32.75;27.70;91.50;;;;;;5017295;28;8767;-66
2022/03/19 12:22:38;;;;;;;;;37.75;31.25;27.70;91.40;;;;;;5015353;28;8766;-65
2022/03/19 12:25:30;;;;;;;;;38.50;33.25;27.80;91.70;;;;;;5018466;28;8751;-67
2022/03/19 12:27:57;;;;;;;;;37.75;33.75;27.80;92.20;;;;;;5017918;28;8813;-66
2022/03/19 12:30:25;;;;;;;;;44.50;37.75;27.70;92.70;;;;;;5015266;28;8847;-66
2022/03/19 12:32:57;;;;;;;;;42.25;36.00;27.60;92.70;;;;;;5033196;28;8763;-66
2022/03/19 12:35:32;;;;;;;;;45.75;36.00;27.70;92.70;;;;;;5019944;28;8771;-66
2022/03/19 12:37:59;;;;;;;;;42.00;35.75;27.30;93.30;;;;;;5021060;28;8763;-66
2022/03/19 12:40:27;;;;;;;;;43.00;36.00;27.20;93.40;;;;;;5020053;28;8783;-64
2022/03/19 12:42:55;;;;;;;;;44.75;35.00;27.20;93.20;;;;;;5020831;28;8751;-67
2022/03/19 12:45:36;;;;;;;;;47.00;34.50;27.20;93.20;;;;;;5020260;28;8795;-66
2022/03/19 12:48:11;;;;;;;;;46.00;37.25;27.20;93.30;;;;;;5035465;28;8810;-67
2022/03/19 12:50:37;;;;;;;;;45.25;36.00;27.20;93.60;;;;;;5019894;28;8900;-66
2022/03/19 12:53:04;;;;;;;;;41.50;34.75;27.10;93.90;;;;;;5019783;28;8767;-66
2022/03/19 12:55:35;;;;;;;;;44.00;35.75;27.00;94.30;;;;;;5019578;28;8798;-66
2022/03/19 12:58:02;;;;;;;;;39.50;32.75;27.00;94.30;;;;;;5020381;28;8790;-67
2022/03/19 13:00:28;;;;;;;;;35.75;30.25;27.00;94.10;;;;;;5019318;28;9012;-66
2022/03/19 13:02:55;;;;;;;;;37.00;32.00;27.20;93.80;;;;;;5019627;28;8786;-67